sensor_id;sensor_type;location;lat;lon;timestamp;pressure;altitude;pressure_sealevel;temperature;humidity
22181;BME280;11256;50.830;12.834;2022-07-29T00:01:15;97716.34;;;21.63;35.25
22181;BME280;11256;50.830;12.834;2022-07-29T00:06:16;97722.44;;;21.56;35.48
22181;BME280;11256;50.830;12.834;2022-07-29T00:11:16;97719.13;;;21.51;35.43
22181;BME280;11256;50.830;12.834;2022-07-29T00:16:17;97707.44;;;21.42;35.38
22181;BME280;11256;50.830;12.834;2022-07-29T00:21:17;97698.50;;;21.33;35.31
22181;BME280;11256;50.830;12.834;2022-07-29T00:26:18;97685.19;;;21.23;35.52
22181;BME280;11256;50.830;12.834;2022-07-29T00:31:18;97695.53;;;21.26;35.83
22181;BME280;11256;50.830;12.834;2022-07-29T00:36:18;97678.81;;;21.19;35.85
22181;BME280;11256;50.830;12.834;2022-07-29T00:41:20;97676.97;;;21.11;36.13
22181;BME280;11256;50.830;12.834;2022-07-29T00:46:21;97666.53;;;21.04;36.07
22181;BME280;11256;50.830;12.834;2022-07-29T00:51:21;97652.78;;;20.92;36.07
22181;BME280;11256;50.830;12.834;2022-07-29T00:56:21;97657.63;;;20.95;36.22
22181;BME280;11256;50.830;12.834;2022-07-29T01:01:22;97662.84;;;20.88;36.43
22181;BME280;11256;50.830;12.834;2022-07-29T01:06:23;97645.19;;;20.77;36.71
22181;BME280;11256;50.830;12.834;2022-07-29T01:11:24;97660.94;;;20.77;36.76
22181;BME280;11256;50.830;12.834;2022-07-29T01:16:36;97659.19;;;20.72;36.76
22181;BME280;11256;50.830;12.834;2022-07-29T01:21:51;97654.19;;;20.62;37.02
22181;BME280;11256;50.830;12.834;2022-07-29T01:27:05;97659.69;;;20.62;37.10
22181;BME280;11256;50.830;12.834;2022-07-29T01:32:15;97656.34;;;20.57;37.10
22181;BME280;11256;50.830;12.834;2022-07-29T01:37:22;97649.94;;;20.53;37.45
22181;BME280;11256;50.830;12.834;2022-07-29T01:42:43;97639.41;;;20.43;37.44
22181;BME280;11256;50.830;12.834;2022-07-29T01:48:27;97645.34;;;20.45;37.56
22181;BME280;11256;50.830;12.834;2022-07-29T01:53:34;97646.25;;;20.37;37.46
22181;BME280;11256;50.830;12.834;2022-07-29T01:58:39;97636.78;;;20.34;37.43
22181;BME280;11256;50.830;12.834;2022-07-29T02:03:43;97617.59;;;20.26;37.52
22181;BME280;11256;50.830;12.834;2022-07-29T02:08:45;97620.34;;;20.26;37.69
22181;BME280;11256;50.830;12.834;2022-07-29T02:13:48;97621.97;;;20.27;37.92
22181;BME280;11256;50.830;12.834;2022-07-29T02:18:51;97630.47;;;20.22;37.92
22181;BME280;11256;50.830;12.834;2022-07-29T02:23:54;97618.06;;;20.16;37.91
22181;BME280;11256;50.830;12.834;2022-07-29T02:28:56;97614.72;;;20.10;37.97
22181;BME280;11256;50.830;12.834;2022-07-29T02:33:58;97616.06;;;20.04;38.30
22181;BME280;11256;50.830;12.834;2022-07-29T02:39:02;97608.03;;;19.99;38.25
22181;BME280;11256;50.830;12.834;2022-07-29T02:44:10;97613.44;;;19.96;38.59
22181;BME280;11256;50.830;12.834;2022-07-29T02:49:35;97617.44;;;19.98;38.54
22181;BME280;11256;50.830;12.834;2022-07-29T02:59:51;97612.72;;;19.87;38.77
22181;BME280;11256;50.830;12.834;2022-07-29T03:04:53;97601.94;;;19.82;38.99
22181;BME280;11256;50.830;12.834;2022-07-29T03:09:55;97612.50;;;19.80;38.86
22181;BME280;11256;50.830;12.834;2022-07-29T03:14:57;97604.91;;;19.77;39.23
22181;BME280;11256;50.830;12.834;2022-07-29T03:19:59;97614.19;;;19.72;38.97
22181;BME280;11256;50.830;12.834;2022-07-29T03:25:08;97594.81;;;19.57;39.24
22181;BME280;11256;50.830;12.834;2022-07-29T03:30:09;97611.22;;;19.65;39.27
22181;BME280;11256;50.830;12.834;2022-07-29T03:35:10;97600.09;;;19.62;39.67
22181;BME280;11256;50.830;12.834;2022-07-29T03:40:18;97606.75;;;19.61;39.22
22181;BME280;11256;50.830;12.834;2022-07-29T03:45:21;97597.78;;;19.52;39.63
22181;BME280;11256;50.830;12.834;2022-07-29T03:50:22;97602.94;;;19.53;39.52
22181;BME280;11256;50.830;12.834;2022-07-29T03:55:23;97599.59;;;19.48;39.49
22181;BME280;11256;50.830;12.834;2022-07-29T04:00:24;97607.94;;;19.51;39.56
22181;BME280;11256;50.830;12.834;2022-07-29T04:05:25;97606.69;;;19.49;39.45
22181;BME280;11256;50.830;12.834;2022-07-29T04:10:26;97620.22;;;19.54;39.55
22181;BME280;11256;50.830;12.834;2022-07-29T04:15:26;97629.81;;;19.48;39.67
22181;BME280;11256;50.830;12.834;2022-07-29T04:20:28;97615.50;;;19.42;39.78
22181;BME280;11256;50.830;12.834;2022-07-29T04:25:29;97624.31;;;19.48;39.81
22181;BME280;11256;50.830;12.834;2022-07-29T04:30:30;97603.44;;;19.35;39.87
22181;BME280;11256;50.830;12.834;2022-07-29T04:35:34;97622.72;;;19.47;39.96
22181;BME280;11256;50.830;12.834;2022-07-29T04:40:35;97609.84;;;19.39;40.06
22181;BME280;11256;50.830;12.834;2022-07-29T04:45:35;97617.22;;;19.47;40.06
22181;BME280;11256;50.830;12.834;2022-07-29T04:50:39;97619.75;;;19.52;39.98
22181;BME280;11256;50.830;12.834;2022-07-29T04:55:39;97607.16;;;19.51;40.09
22181;BME280;11256;50.830;12.834;2022-07-29T05:00:40;97613.72;;;19.58;40.26
22181;BME280;11256;50.830;12.834;2022-07-29T05:05:40;97609.94;;;19.63;40.30
22181;BME280;11256;50.830;12.834;2022-07-29T05:10:41;97620.72;;;19.68;40.47
22181;BME280;11256;50.830;12.834;2022-07-29T05:15:41;97625.69;;;19.74;40.45
22181;BME280;11256;50.830;12.834;2022-07-29T05:20:41;97616.59;;;19.74;40.21
22181;BME280;11256;50.830;12.834;2022-07-29T05:25:42;97618.44;;;19.82;40.53
22181;BME280;11256;50.830;12.834;2022-07-29T05:30:42;97619.38;;;19.86;41.43
22181;BME280;11256;50.830;12.834;2022-07-29T05:35:44;97625.81;;;19.90;41.39
22181;BME280;11256;50.830;12.834;2022-07-29T05:40:44;97617.88;;;19.88;41.71
22181;BME280;11256;50.830;12.834;2022-07-29T05:45:45;97635.22;;;20.01;42.02
22181;BME280;11256;50.830;12.834;2022-07-29T05:50:45;97632.72;;;20.08;42.03
22181;BME280;11256;50.830;12.834;2022-07-29T05:55:48;97635.59;;;20.11;41.97
22181;BME280;11256;50.830;12.834;2022-07-29T06:00:49;97629.97;;;20.20;41.99
22181;BME280;11256;50.830;12.834;2022-07-29T06:05:49;97622.75;;;20.27;41.77
22181;BME280;11256;50.830;12.834;2022-07-29T06:10:49;97621.47;;;20.37;41.93
22181;BME280;11256;50.830;12.834;2022-07-29T06:15:50;97626.09;;;20.45;41.68
22181;BME280;11256;50.830;12.834;2022-07-29T06:20:50;97630.31;;;20.54;41.86
22181;BME280;11256;50.830;12.834;2022-07-29T06:25:51;97637.19;;;20.60;42.43
22181;BME280;11256;50.830;12.834;2022-07-29T06:30:51;97635.47;;;20.68;42.04
22181;BME280;11256;50.830;12.834;2022-07-29T06:35:51;97635.34;;;20.76;42.52
22181;BME280;11256;50.830;12.834;2022-07-29T06:40:52;97629.13;;;20.79;42.28
22181;BME280;11256;50.830;12.834;2022-07-29T06:46:04;97632.34;;;20.93;42.54
22181;BME280;11256;50.830;12.834;2022-07-29T06:51:06;97614.78;;;20.98;41.93
22181;BME280;11256;50.830;12.834;2022-07-29T06:56:06;97622.09;;;21.06;41.79
22181;BME280;11256;50.830;12.834;2022-07-29T07:01:10;97631.38;;;21.13;41.61
22181;BME280;11256;50.830;12.834;2022-07-29T07:06:10;97639.59;;;21.25;42.06
22181;BME280;11256;50.830;12.834;2022-07-29T07:11:11;97631.16;;;21.34;41.83
22181;BME280;11256;50.830;12.834;2022-07-29T07:16:12;97637.34;;;21.43;42.25
22181;BME280;11256;50.830;12.834;2022-07-29T07:21:12;97636.50;;;21.54;42.45
22181;BME280;11256;50.830;12.834;2022-07-29T07:26:12;97624.13;;;21.64;42.35
22181;BME280;11256;50.830;12.834;2022-07-29T07:31:13;97630.31;;;21.73;42.50
22181;BME280;11256;50.830;12.834;2022-07-29T07:36:14;97622.25;;;21.80;42.62
22181;BME280;11256;50.830;12.834;2022-07-29T07:41:14;97605.59;;;21.76;42.94
22181;BME280;11256;50.830;12.834;2022-07-29T07:46:15;97628.13;;;21.94;42.90
22181;BME280;11256;50.830;12.834;2022-07-29T07:51:15;97638.09;;;22.14;43.90
22181;BME280;11256;50.830;12.834;2022-07-29T07:56:16;97635.97;;;22.23;43.37
22181;BME280;11256;50.830;12.834;2022-07-29T08:01:16;97642.03;;;22.44;43.79
22181;BME280;11256;50.830;12.834;2022-07-29T08:06:18;97632.94;;;22.59;43.88
22181;BME280;11256;50.830;12.834;2022-07-29T08:11:19;97645.63;;;22.79;44.91
22181;BME280;11256;50.830;12.834;2022-07-29T08:16:20;97628.69;;;23.15;45.23
22181;BME280;11256;50.830;12.834;2022-07-29T08:21:20;97632.78;;;23.59;44.87
22181;BME280;11256;50.830;12.834;2022-07-29T08:26:21;97632.19;;;24.10;45.26
22181;BME280;11256;50.830;12.834;2022-07-29T08:31:22;97634.53;;;25.09;45.79
22181;BME280;11256;50.830;12.834;2022-07-29T08:36:23;97631.34;;;26.46;44.24
22181;BME280;11256;50.830;12.834;2022-07-29T08:41:23;97622.63;;;27.87;43.35
22181;BME280;11256;50.830;12.834;2022-07-29T08:46:23;97641.47;;;28.74;41.45
22181;BME280;11256;50.830;12.834;2022-07-29T08:51:25;97635.91;;;30.02;40.54
22181;BME280;11256;50.830;12.834;2022-07-29T08:56:26;97648.69;;;31.08;38.89
22181;BME280;11256;50.830;12.834;2022-07-29T09:01:28;97626.50;;;31.91;36.91
22181;BME280;11256;50.830;12.834;2022-07-29T09:06:34;97635.69;;;32.22;33.41
22181;BME280;11256;50.830;12.834;2022-07-29T09:11:37;97619.72;;;32.45;31.41
22181;BME280;11256;50.830;12.834;2022-07-29T09:17:03;97632.25;;;33.91;33.10
22181;BME280;11256;50.830;12.834;2022-07-29T09:22:06;97622.19;;;34.10;31.64
22181;BME280;11256;50.830;12.834;2022-07-29T09:27:25;97620.53;;;34.48;31.53
22181;BME280;11256;50.830;12.834;2022-07-29T09:32:26;97622.25;;;34.74;31.63
22181;BME280;11256;50.830;12.834;2022-07-29T09:37:28;97621.22;;;34.68;28.59
22181;BME280;11256;50.830;12.834;2022-07-29T09:42:29;97618.91;;;35.11;30.78
22181;BME280;11256;50.830;12.834;2022-07-29T09:47:46;97611.13;;;35.31;30.54
22181;BME280;11256;50.830;12.834;2022-07-29T09:52:52;97605.38;;;35.63;29.88
22181;BME280;11256;50.830;12.834;2022-07-29T09:57:53;97594.91;;;35.35;29.02
22181;BME280;11256;50.830;12.834;2022-07-29T10:02:59;97593.41;;;35.30;29.56
22181;BME280;11256;50.830;12.834;2022-07-29T10:08:01;97583.38;;;35.13;29.56
22181;BME280;11256;50.830;12.834;2022-07-29T10:13:06;97577.56;;;34.28;29.36
22181;BME280;11256;50.830;12.834;2022-07-29T10:18:08;97582.31;;;33.95;29.89
22181;BME280;11256;50.830;12.834;2022-07-29T10:23:08;97573.72;;;33.28;30.09
22181;BME280;11256;50.830;12.834;2022-07-29T10:28:09;97560.13;;;32.08;29.80
22181;BME280;11256;50.830;12.834;2022-07-29T10:33:37;97540.44;;;31.85;30.35
22181;BME280;11256;50.830;12.834;2022-07-29T10:39:05;97558.31;;;31.98;30.35
22181;BME280;11256;50.830;12.834;2022-07-29T10:44:23;97560.81;;;32.15;31.33
22181;BME280;11256;50.830;12.834;2022-07-29T10:49:26;97553.63;;;32.64;31.13
22181;BME280;11256;50.830;12.834;2022-07-29T10:59:33;97547.75;;;32.32;30.23
22181;BME280;11256;50.830;12.834;2022-07-29T11:05:00;97553.84;;;33.74;29.06
22181;BME280;11256;50.830;12.834;2022-07-29T11:15:21;97548.16;;;34.61;29.06
22181;BME280;11256;50.830;12.834;2022-07-29T11:20:35;97537.56;;;34.17;29.36
22181;BME280;11256;50.830;12.834;2022-07-29T11:25:36;97536.88;;;34.13;29.24
22181;BME280;11256;50.830;12.834;2022-07-29T11:30:53;97529.91;;;33.66;29.46
22181;BME280;11256;50.830;12.834;2022-07-29T11:36:11;97526.19;;;33.88;29.22
22181;BME280;11256;50.830;12.834;2022-07-29T11:41:25;97532.44;;;33.80;29.84
22181;BME280;11256;50.830;12.834;2022-07-29T11:46:46;97533.09;;;33.68;29.91
22181;BME280;11256;50.830;12.834;2022-07-29T11:51:59;97525.34;;;34.07;29.46
22181;BME280;11256;50.830;12.834;2022-07-29T11:57:06;97526.84;;;34.12;29.12
22181;BME280;11256;50.830;12.834;2022-07-29T12:02:07;97503.59;;;33.92;28.60
22181;BME280;11256;50.830;12.834;2022-07-29T12:07:10;97514.38;;;34.45;29.30
22181;BME280;11256;50.830;12.834;2022-07-29T12:12:16;97517.25;;;34.57;27.54
22181;BME280;11256;50.830;12.834;2022-07-29T12:22:33;97499.03;;;35.35;28.91
22181;BME280;11256;50.830;12.834;2022-07-29T12:27:34;97505.91;;;34.61;27.57
22181;BME280;11256;50.830;12.834;2022-07-29T12:32:41;97500.63;;;34.47;27.75
22181;BME280;11256;50.830;12.834;2022-07-29T12:37:44;97486.25;;;35.02;28.34
22181;BME280;11256;50.830;12.834;2022-07-29T12:48:07;97488.06;;;34.35;28.71
22181;BME280;11256;50.830;12.834;2022-07-29T12:53:12;97483.06;;;34.43;28.02
22181;BME280;11256;50.830;12.834;2022-07-29T12:58:13;97500.00;;;35.00;28.46
22181;BME280;11256;50.830;12.834;2022-07-29T13:03:13;97490.16;;;34.47;28.42
22181;BME280;11256;50.830;12.834;2022-07-29T13:08:16;97497.16;;;34.27;27.77
22181;BME280;11256;50.830;12.834;2022-07-29T13:13:16;97502.28;;;34.44;28.97
22181;BME280;11256;50.830;12.834;2022-07-29T13:18:27;97507.31;;;34.21;27.51
22181;BME280;11256;50.830;12.834;2022-07-29T13:23:28;97508.13;;;34.37;28.31
22181;BME280;11256;50.830;12.834;2022-07-29T13:28:28;97503.72;;;33.69;28.61
22181;BME280;11256;50.830;12.834;2022-07-29T13:33:29;97500.78;;;33.92;28.61
22181;BME280;11256;50.830;12.834;2022-07-29T13:38:30;97508.91;;;34.22;29.06
22181;BME280;11256;50.830;12.834;2022-07-29T13:43:30;97519.09;;;34.00;29.97
22181;BME280;11256;50.830;12.834;2022-07-29T13:48:30;97507.41;;;33.85;30.83
22181;BME280;11256;50.830;12.834;2022-07-29T13:53:31;97522.41;;;33.79;33.38
22181;BME280;11256;50.830;12.834;2022-07-29T13:58:32;97529.19;;;33.62;33.55
22181;BME280;11256;50.830;12.834;2022-07-29T14:03:33;97512.94;;;33.34;33.41
22181;BME280;11256;50.830;12.834;2022-07-29T14:08:34;97505.63;;;32.97;33.62
22181;BME280;11256;50.830;12.834;2022-07-29T14:13:34;97507.47;;;32.65;34.02
22181;BME280;11256;50.830;12.834;2022-07-29T14:18:35;97510.41;;;32.35;34.26
22181;BME280;11256;50.830;12.834;2022-07-29T14:23:36;97490.00;;;32.08;34.51
22181;BME280;11256;50.830;12.834;2022-07-29T14:28:36;97507.00;;;31.97;35.30
22181;BME280;11256;50.830;12.834;2022-07-29T14:33:37;97514.19;;;31.72;35.47
22181;BME280;11256;50.830;12.834;2022-07-29T14:38:37;97529.50;;;31.64;36.55
22181;BME280;11256;50.830;12.834;2022-07-29T14:43:38;97549.53;;;31.36;38.46
22181;BME280;11256;50.830;12.834;2022-07-29T14:48:39;97556.56;;;31.14;37.97
22181;BME280;11256;50.830;12.834;2022-07-29T14:53:39;97577.09;;;30.67;39.15
22181;BME280;11256;50.830;12.834;2022-07-29T14:58:39;97579.53;;;30.58;38.85
22181;BME280;11256;50.830;12.834;2022-07-29T15:03:40;97584.25;;;30.24;39.72
22181;BME280;11256;50.830;12.834;2022-07-29T15:08:40;97587.22;;;29.92;40.35
22181;BME280;11256;50.830;12.834;2022-07-29T15:13:40;97577.78;;;29.72;39.96
22181;BME280;11256;50.830;12.834;2022-07-29T15:18:41;97568.66;;;29.51;39.29
22181;BME280;11256;50.830;12.834;2022-07-29T15:23:41;97550.81;;;29.24;39.68
22181;BME280;11256;50.830;12.834;2022-07-29T15:28:42;97546.50;;;29.12;39.46
22181;BME280;11256;50.830;12.834;2022-07-29T15:33:42;97537.34;;;28.94;39.94
22181;BME280;11256;50.830;12.834;2022-07-29T15:38:42;97520.69;;;28.77;40.37
22181;BME280;11256;50.830;12.834;2022-07-29T15:43:44;97514.31;;;28.59;40.51
22181;BME280;11256;50.830;12.834;2022-07-29T15:48:47;97504.00;;;28.35;40.34
22181;BME280;11256;50.830;12.834;2022-07-29T15:53:47;97489.28;;;28.13;40.64
22181;BME280;11256;50.830;12.834;2022-07-29T15:58:48;97488.47;;;27.99;42.43
22181;BME280;11256;50.830;12.834;2022-07-29T16:03:49;97470.53;;;27.58;45.04
22181;BME280;11256;50.830;12.834;2022-07-29T16:08:50;97483.59;;;26.44;48.07
22181;BME280;11256;50.830;12.834;2022-07-29T16:13:50;97475.38;;;26.65;44.63
22181;BME280;11256;50.830;12.834;2022-07-29T16:18:50;97454.34;;;26.64;43.95
22181;BME280;11256;50.830;12.834;2022-07-29T16:23:51;97451.19;;;26.69;43.78
22181;BME280;11256;50.830;12.834;2022-07-29T16:28:52;97456.75;;;26.76;43.87
22181;BME280;11256;50.830;12.834;2022-07-29T16:33:53;97466.34;;;26.89;43.91
22181;BME280;11256;50.830;12.834;2022-07-29T16:38:53;97461.94;;;26.81;43.84
22181;BME280;11256;50.830;12.834;2022-07-29T16:43:54;97459.16;;;26.81;44.53
22181;BME280;11256;50.830;12.834;2022-07-29T16:48:54;97453.53;;;26.70;44.69
22181;BME280;11256;50.830;12.834;2022-07-29T16:53:54;97467.50;;;26.77;45.24
22181;BME280;11256;50.830;12.834;2022-07-29T16:58:56;97457.53;;;26.69;44.92
22181;BME280;11256;50.830;12.834;2022-07-29T17:03:57;97457.50;;;26.62;44.97
22181;BME280;11256;50.830;12.834;2022-07-29T17:09:08;97474.19;;;26.62;45.26
22181;BME280;11256;50.830;12.834;2022-07-29T17:14:09;97472.16;;;26.56;44.67
22181;BME280;11256;50.830;12.834;2022-07-29T17:19:10;97470.91;;;26.53;45.36
22181;BME280;11256;50.830;12.834;2022-07-29T17:24:10;97475.63;;;26.46;45.32
22181;BME280;11256;50.830;12.834;2022-07-29T17:29:10;97481.56;;;26.41;45.63
22181;BME280;11256;50.830;12.834;2022-07-29T17:34:11;97489.50;;;26.35;45.16
22181;BME280;11256;50.830;12.834;2022-07-29T17:39:11;97484.25;;;26.23;45.55
22181;BME280;11256;50.830;12.834;2022-07-29T17:44:12;97483.38;;;26.12;45.84
22181;BME280;11256;50.830;12.834;2022-07-29T17:49:13;97482.56;;;26.12;45.90
22181;BME280;11256;50.830;12.834;2022-07-29T17:54:13;97495.22;;;26.02;45.64
22181;BME280;11256;50.830;12.834;2022-07-29T17:59:13;97481.31;;;25.99;46.16
22181;BME280;11256;50.830;12.834;2022-07-29T18:04:14;97488.41;;;25.93;46.35
22181;BME280;11256;50.830;12.834;2022-07-29T18:09:19;97466.41;;;25.81;46.09
22181;BME280;11256;50.830;12.834;2022-07-29T18:14:19;97474.34;;;25.79;46.88
22181;BME280;11256;50.830;12.834;2022-07-29T18:19:19;97470.31;;;25.69;46.59
22181;BME280;11256;50.830;12.834;2022-07-29T18:24:20;97458.38;;;25.65;47.14
22181;BME280;11256;50.830;12.834;2022-07-29T18:29:21;97445.63;;;25.57;47.34
22181;BME280;11256;50.830;12.834;2022-07-29T18:34:21;97459.06;;;25.55;47.72
22181;BME280;11256;50.830;12.834;2022-07-29T18:39:22;97452.25;;;25.46;47.84
22181;BME280;11256;50.830;12.834;2022-07-29T18:44:22;97446.97;;;25.34;47.68
22181;BME280;11256;50.830;12.834;2022-07-29T18:49:23;97461.97;;;25.29;47.70
22181;BME280;11256;50.830;12.834;2022-07-29T18:54:24;97468.25;;;25.23;48.03
22181;BME280;11256;50.830;12.834;2022-07-29T18:59:24;97465.81;;;25.18;48.38
22181;BME280;11256;50.830;12.834;2022-07-29T19:04:25;97469.78;;;25.17;48.07
22181;BME280;11256;50.830;12.834;2022-07-29T19:09:25;97464.97;;;25.14;49.40
22181;BME280;11256;50.830;12.834;2022-07-29T19:14:26;97459.25;;;25.00;49.03
22181;BME280;11256;50.830;12.834;2022-07-29T19:19:26;97479.06;;;24.98;48.76
22181;BME280;11256;50.830;12.834;2022-07-29T19:24:27;97474.72;;;24.97;49.02
22181;BME280;11256;50.830;12.834;2022-07-29T19:29:28;97485.31;;;24.92;48.70
22181;BME280;11256;50.830;12.834;2022-07-29T19:34:30;97488.44;;;24.87;49.09
22181;BME280;11256;50.830;12.834;2022-07-29T19:39:31;97499.94;;;24.89;49.18
22181;BME280;11256;50.830;12.834;2022-07-29T19:44:31;97494.31;;;24.82;49.64
22181;BME280;11256;50.830;12.834;2022-07-29T19:49:32;97492.25;;;24.75;49.49
22181;BME280;11256;50.830;12.834;2022-07-29T19:54:36;97492.19;;;24.72;49.56
22181;BME280;11256;50.830;12.834;2022-07-29T19:59:36;97493.28;;;24.64;49.76
22181;BME280;11256;50.830;12.834;2022-07-29T20:04:38;97497.63;;;24.61;49.57
22181;BME280;11256;50.830;12.834;2022-07-29T20:09:39;97505.34;;;24.49;49.54
22181;BME280;11256;50.830;12.834;2022-07-29T20:14:40;97507.19;;;24.41;49.03
22181;BME280;11256;50.830;12.834;2022-07-29T20:19:41;97497.97;;;24.34;49.32
22181;BME280;11256;50.830;12.834;2022-07-29T20:24:42;97494.47;;;24.37;49.09
22181;BME280;11256;50.830;12.834;2022-07-29T20:29:43;97493.28;;;24.38;49.89
22181;BME280;11256;50.830;12.834;2022-07-29T20:34:43;97505.16;;;24.35;50.46
22181;BME280;11256;50.830;12.834;2022-07-29T20:39:43;97504.66;;;24.29;50.90
22181;BME280;11256;50.830;12.834;2022-07-29T20:44:47;97512.91;;;24.26;50.78
22181;BME280;11256;50.830;12.834;2022-07-29T20:49:49;97519.50;;;24.18;51.05
22181;BME280;11256;50.830;12.834;2022-07-29T20:54:50;97522.28;;;24.18;50.94
22181;BME280;11256;50.830;12.834;2022-07-29T20:59:50;97514.72;;;24.15;51.39
22181;BME280;11256;50.830;12.834;2022-07-29T21:04:51;97515.66;;;24.00;51.38
22181;BME280;11256;50.830;12.834;2022-07-29T21:09:52;97534.94;;;23.93;54.68
22181;BME280;11256;50.830;12.834;2022-07-29T21:14:52;97554.78;;;23.76;51.09
22181;BME280;11256;50.830;12.834;2022-07-29T21:19:53;97558.47;;;23.61;51.39
22181;BME280;11256;50.830;12.834;2022-07-29T21:24:54;97574.78;;;23.47;56.38
22181;BME280;11256;50.830;12.834;2022-07-29T21:29:54;97578.75;;;23.46;52.25
22181;BME280;11256;50.830;12.834;2022-07-29T21:34:55;97579.03;;;23.41;52.28
22181;BME280;11256;50.830;12.834;2022-07-29T21:39:55;97596.94;;;23.47;51.95
22181;BME280;11256;50.830;12.834;2022-07-29T21:44:56;97592.16;;;23.44;51.87
22181;BME280;11256;50.830;12.834;2022-07-29T21:49:56;97591.28;;;23.40;52.29
22181;BME280;11256;50.830;12.834;2022-07-29T21:54:57;97591.28;;;23.40;52.38
22181;BME280;11256;50.830;12.834;2022-07-29T21:59:57;97596.44;;;23.41;52.36
22181;BME280;11256;50.830;12.834;2022-07-29T22:04:57;97602.22;;;23.33;52.54
22181;BME280;11256;50.830;12.834;2022-07-29T22:09:58;97591.84;;;23.30;52.78
22181;BME280;11256;50.830;12.834;2022-07-29T22:14:58;97596.22;;;23.31;53.07
22181;BME280;11256;50.830;12.834;2022-07-29T22:19:59;97595.72;;;23.25;54.78
22181;BME280;11256;50.830;12.834;2022-07-29T22:25:00;97586.13;;;23.19;53.24
22181;BME280;11256;50.830;12.834;2022-07-29T22:30:00;97584.53;;;23.18;53.83
22181;BME280;11256;50.830;12.834;2022-07-29T22:35:01;97584.78;;;23.13;55.77
22181;BME280;11256;50.830;12.834;2022-07-29T22:40:02;97583.47;;;23.07;54.51
22181;BME280;11256;50.830;12.834;2022-07-29T22:45:03;97573.06;;;23.01;54.45
22181;BME280;11256;50.830;12.834;2022-07-29T22:50:04;97573.78;;;22.98;54.85
22181;BME280;11256;50.830;12.834;2022-07-29T22:55:05;97579.31;;;22.98;55.00
22181;BME280;11256;50.830;12.834;2022-07-29T23:00:07;97577.72;;;22.97;54.70
22181;BME280;11256;50.830;12.834;2022-07-29T23:05:08;97591.03;;;22.91;54.99
22181;BME280;11256;50.830;12.834;2022-07-29T23:10:09;97559.34;;;22.70;57.42
22181;BME280;11256;50.830;12.834;2022-07-29T23:15:09;97581.53;;;22.73;56.37
22181;BME280;11256;50.830;12.834;2022-07-29T23:20:10;97580.81;;;22.76;55.37
22181;BME280;11256;50.830;12.834;2022-07-29T23:25:10;97575.16;;;22.69;54.94
22181;BME280;11256;50.830;12.834;2022-07-29T23:30:11;97578.56;;;22.63;55.20
22181;BME280;11256;50.830;12.834;2022-07-29T23:35:11;97588.72;;;22.59;54.97
22181;BME280;11256;50.830;12.834;2022-07-29T23:40:12;97576.63;;;22.48;55.17
22181;BME280;11256;50.830;12.834;2022-07-29T23:45:12;97582.38;;;22.43;56.58
22181;BME280;11256;50.830;12.834;2022-07-29T23:50:13;97594.53;;;22.38;55.71
22181;BME280;11256;50.830;12.834;2022-07-29T23:55:15;97585.44;;;22.38;55.71
